Time;durP1;ratioP1;P1;durP2;ratioP2;P2;SDS_P1;SDS_P2;PMS_P1;PMS_P2;Temp;Humidity;BMP_temperature;BMP_pressure;BME280_temperature;BME280_humidity;BME280_pressure;Samples;Min_cycle;Max_cycle;Signal;HPM_P1;HPM_P2
2023/11/11 00:01:35;;;;;;;0.90;0.80;;;12.10;59.00;;;;;;5009318;28;20202;-50
2023/11/11 00:04:01;;;;;;;1.67;0.80;;;12.00;58.70;;;;;;5009467;28;20186;-48
2023/11/11 00:06:27;;;;;;;1.03;0.83;;;11.60;59.30;;;;;;5008365;28;20194;-50
2023/11/11 00:08:52;;;;;;;2.40;1.03;;;11.30;59.90;;;;;;5009301;28;20644;-54
2023/11/11 00:11:18;;;;;;;1.93;0.80;;;11.30;60.60;;;;;;5008885;28;20459;-48
2023/11/11 00:13:44;;;;;;;0.80;0.80;;;11.40;60.60;;;;;;5009010;28;20222;-48
2023/11/11 00:16:09;;;;;;;1.33;0.70;;;11.50;60.60;;;;;;5008541;28;20190;-49
2023/11/11 00:18:36;;;;;;;1.20;1.00;;;11.50;60.30;;;;;;5005862;28;21340;-47
2023/11/11 00:21:03;;;;;;;1.40;1.30;;;11.50;60.40;;;;;;5006010;28;20194;-47
2023/11/11 00:23:30;;;;;;;0.83;0.73;;;11.70;60.40;;;;;;5006519;28;20444;-47
2023/11/11 00:25:56;;;;;;;1.13;0.63;;;11.60;60.10;;;;;;5006093;28;20484;-47
2023/11/11 00:28:22;;;;;;;0.60;0.60;;;11.80;60.10;;;;;;5007259;28;20488;-50
2023/11/11 00:30:48;;;;;;;0.83;0.80;;;11.80;60.10;;;;;;5006488;28;20193;-49
2023/11/11 00:33:13;;;;;;;0.73;0.70;;;11.70;60.70;;;;;;5006766;28;20209;-50
2023/11/11 00:35:39;;;;;;;1.73;1.00;;;11.60;60.60;;;;;;5003119;28;20623;-49
2023/11/11 00:38:09;;;;;;;4.00;0.87;;;11.50;61.10;;;;;;5007755;28;20285;-50
2023/11/11 00:40:36;;;;;;;2.10;0.80;;;11.60;61.40;;;;;;5006593;28;20190;-47
2023/11/11 00:43:01;;;;;;;0.70;0.70;;;11.50;61.70;;;;;;5007878;28;20512;-47
2023/11/11 00:45:27;;;;;;;0.60;0.60;;;11.60;61.60;;;;;;5007248;28;20453;-51
2023/11/11 00:47:52;;;;;;;1.80;0.80;;;11.50;61.80;;;;;;5008171;28;20268;-52
2023/11/11 00:50:18;;;;;;;0.70;0.70;;;11.50;62.00;;;;;;5006160;28;20896;-53
2023/11/11 00:52:44;;;;;;;1.00;0.70;;;11.70;61.60;;;;;;5005054;28;20197;-49
2023/11/11 00:55:09;;;;;;;1.53;0.70;;;11.60;61.60;;;;;;5007694;28;20781;-50
2023/11/11 00:57:35;;;;;;;1.33;0.60;;;11.60;62.00;;;;;;5005855;28;20284;-50
2023/11/11 01:00:00;;;;;;;0.60;0.60;;;11.70;62.20;;;;;;5004298;28;20214;-47
2023/11/11 01:02:26;;;;;;;1.10;0.70;;;11.70;62.20;;;;;;5002884;28;20194;-49
2023/11/11 01:04:52;;;;;;;1.43;0.77;;;11.70;62.10;;;;;;5004872;28;20798;-50
2023/11/11 01:07:17;;;;;;;3.90;0.70;;;11.60;62.50;;;;;;5007516;28;20680;-51
2023/11/11 01:09:43;;;;;;;1.27;0.97;;;11.40;63.20;;;;;;5008189;28;20234;-54
2023/11/11 01:12:10;;;;;;;1.03;0.70;;;11.10;64.40;;;;;;5007813;28;20190;-47
2023/11/11 01:14:35;;;;;;;1.13;0.70;;;11.00;65.60;;;;;;5008048;28;20205;-50
2023/11/11 01:17:02;;;;;;;0.80;0.80;;;10.90;67.00;;;;;;5004841;28;20445;-47
2023/11/11 01:19:28;;;;;;;0.53;0.53;;;10.90;67.90;;;;;;5001470;28;20198;-47
2023/11/11 01:21:54;;;;;;;1.13;0.70;;;11.00;68.30;;;;;;4999240;28;20443;-47
2023/11/11 01:24:20;;;;;;;1.40;0.80;;;11.10;68.40;;;;;;5001279;28;20197;-52
2023/11/11 01:26:45;;;;;;;1.63;0.87;;;11.30;67.40;;;;;;5000601;28;20615;-49
2023/11/11 01:29:11;;;;;;;4.37;0.70;;;11.20;67.30;;;;;;5000934;28;20230;-49
2023/11/11 01:31:37;;;;;;;1.43;0.70;;;11.20;66.40;;;;;;5001061;28;20181;-51
2023/11/11 01:34:04;;;;;;;0.70;0.60;;;11.20;66.60;;;;;;5002020;28;20257;-50
2023/11/11 01:36:30;;;;;;;2.20;0.80;;;11.40;66.20;;;;;;5001053;28;20218;-54
2023/11/11 01:38:55;;;;;;;0.60;0.60;;;11.30;65.90;;;;;;5000079;28;20756;-50
2023/11/11 01:41:21;;;;;;;0.63;0.63;;;11.10;66.00;;;;;;5005095;28;20197;-51
2023/11/11 01:43:47;;;;;;;1.03;0.70;;;11.00;66.30;;;;;;5006930;28;20852;-49
2023/11/11 01:46:13;;;;;;;1.17;0.93;;;11.20;65.60;;;;;;5006037;28;20190;-47
2023/11/11 01:48:40;;;;;;;0.90;0.77;;;11.20;64.10;;;;;;5005100;28;20506;-49
2023/11/11 01:51:06;;;;;;;1.60;0.73;;;11.20;65.00;;;;;;5005463;28;20444;-50
2023/11/11 01:53:34;;;;;;;1.03;0.70;;;11.30;64.60;;;;;;5006518;28;20995;-53
2023/11/11 01:56:00;;;;;;;0.50;0.50;;;11.30;63.80;;;;;;5007296;28;20440;-49
2023/11/11 01:58:27;;;;;;;1.13;1.00;;;11.60;62.70;;;;;;5006363;28;20522;-51
2023/11/11 02:00:53;;;;;;;2.00;1.80;;;11.40;62.10;;;;;;5006518;28;20429;-56
2023/11/11 02:03:22;;;;;;;1.57;0.53;;;11.30;62.40;;;;;;5000815;28;20440;-47
2023/11/11 02:05:52;;;;;;;1.00;0.70;;;11.30;62.20;;;;;;5006537;28;20433;-51
2023/11/11 02:08:19;;;;;;;0.60;0.60;;;11.40;61.40;;;;;;5001544;28;20479;-53
2023/11/11 02:10:45;;;;;;;0.60;0.53;;;11.20;60.60;;;;;;5008647;28;20543;-52
2023/11/11 02:13:11;;;;;;;0.60;0.50;;;11.30;61.10;;;;;;5006428;28;20695;-47
2023/11/11 02:15:37;;;;;;;0.70;0.70;;;11.20;61.00;;;;;;5006741;28;20617;-49
2023/11/11 02:18:03;;;;;;;0.63;0.63;;;11.20;60.80;;;;;;5002913;28;20444;-52
2023/11/11 02:20:33;;;;;;;0.67;0.67;;;11.10;59.70;;;;;;5002003;28;20170;-49
2023/11/11 02:23:02;;;;;;;0.97;0.57;;;10.90;59.60;;;;;;5001666;28;20437;-49
2023/11/11 02:25:28;;;;;;;1.20;0.70;;;10.90;59.10;;;;;;5001114;28;20452;-48
2023/11/11 02:27:53;;;;;;;0.87;0.67;;;10.80;58.80;;;;;;4999424;28;20457;-50
2023/11/11 02:30:19;;;;;;;1.33;0.60;;;11.00;59.00;;;;;;4997497;28;20210;-52
2023/11/11 02:32:45;;;;;;;0.50;0.50;;;11.10;58.40;;;;;;5004845;28;20212;-52
2023/11/11 02:35:11;;;;;;;0.60;0.60;;;11.00;58.70;;;;;;5006253;28;20202;-48
2023/11/11 02:37:37;;;;;;;0.70;0.70;;;11.20;59.00;;;;;;4999194;28;20441;-50
2023/11/11 02:40:03;;;;;;;0.50;0.50;;;11.30;59.10;;;;;;5005907;28;20662;-52
2023/11/11 02:42:29;;;;;;;0.70;0.70;;;11.20;59.80;;;;;;5005187;28;20186;-49
2023/11/11 02:44:54;;;;;;;0.60;0.60;;;11.00;60.40;;;;;;5003137;28;20827;-52
2023/11/11 02:47:20;;;;;;;0.60;0.50;;;11.00;60.90;;;;;;5005795;28;20273;-49
2023/11/11 02:49:45;;;;;;;0.50;0.50;;;10.90;61.60;;;;;;5005186;28;20244;-46
2023/11/11 02:52:11;;;;;;;0.50;0.50;;;10.80;61.50;;;;;;5002891;28;20194;-47
2023/11/11 02:54:37;;;;;;;0.60;0.47;;;10.50;63.00;;;;;;5002933;28;20213;-53
2023/11/11 02:57:03;;;;;;;1.47;0.47;;;10.40;64.10;;;;;;5003432;28;20190;-52
2023/11/11 02:59:28;;;;;;;0.80;0.47;;;10.40;65.60;;;;;;5006453;28;20475;-52
2023/11/11 03:01:54;;;;;;;1.20;0.50;;;10.40;67.40;;;;;;5002368;28;20236;-47
2023/11/11 03:04:21;;;;;;;1.00;0.40;;;10.50;69.40;;;;;;5005596;28;20741;-49
2023/11/11 03:06:46;;;;;;;1.63;0.50;;;10.70;69.20;;;;;;5006236;28;20181;-49
2023/11/11 03:09:12;;;;;;;0.93;0.50;;;10.70;69.20;;;;;;5009507;28;20455;-47
2023/11/11 03:11:39;;;;;;;1.73;0.50;;;10.80;69.40;;;;;;5006106;28;20186;-47
2023/11/11 03:14:05;;;;;;;0.80;0.50;;;10.90;69.60;;;;;;5003719;28;20762;-49
2023/11/11 03:16:37;;;;;;;0.83;0.50;;;11.00;69.60;;;;;;5003820;28;20437;-52
2023/11/11 03:19:04;;;;;;;2.70;0.70;;;11.20;69.20;;;;;;5002981;28;20271;-51
2023/11/11 03:21:30;;;;;;;0.80;0.50;;;11.10;69.80;;;;;;5002386;28;20527;-52
2023/11/11 03:23:56;;;;;;;0.67;0.63;;;11.30;69.00;;;;;;5002885;28;20450;-47
2023/11/11 03:26:23;;;;;;;1.17;0.60;;;11.50;68.20;;;;;;5003354;28;20444;-49
2023/11/11 03:28:49;;;;;;;0.70;0.60;;;11.60;67.80;;;;;;5002976;28;20291;-50
2023/11/11 03:31:17;;;;;;;0.50;0.40;;;11.50;67.60;;;;;;5002702;28;20988;-50
2023/11/11 03:33:42;;;;;;;0.60;0.60;;;11.10;67.90;;;;;;5003941;28;20504;-52
2023/11/11 03:36:08;;;;;;;1.70;0.60;;;10.90;68.50;;;;;;5002949;28;20468;-50
2023/11/11 03:38:34;;;;;;;1.00;0.70;;;11.10;69.20;;;;;;5003105;28;20673;-49
2023/11/11 03:40:59;;;;;;;0.90;0.60;;;11.00;67.90;;;;;;5008339;28;20194;-50
2023/11/11 03:43:25;;;;;;;2.30;1.17;;;10.80;69.80;;;;;;5010086;28;20197;-51
2023/11/11 03:45:50;;;;;;;0.80;0.80;;;10.90;69.20;;;;;;5009550;28;20684;-50
2023/11/11 03:48:16;;;;;;;0.90;0.80;;;10.80;69.10;;;;;;5007734;28;20178;-50
2023/11/11 03:50:42;;;;;;;0.70;0.70;;;10.90;69.70;;;;;;5009363;28;20174;-46
2023/11/11 03:53:07;;;;;;;1.00;0.90;;;10.70;69.00;;;;;;5009578;28;20479;-54
2023/11/11 03:55:33;;;;;;;0.80;0.80;;;10.60;69.00;;;;;;5010318;28;21320;-48
2023/11/11 03:57:58;;;;;;;1.03;1.00;;;10.80;69.30;;;;;;5008991;28;20190;-48
2023/11/11 04:00:24;;;;;;;1.33;1.00;;;10.90;68.30;;;;;;5008981;28;20640;-47
2023/11/11 04:02:49;;;;;;;2.30;0.90;;;10.80;68.50;;;;;;5009025;28;20605;-55
2023/11/11 04:05:15;;;;;;;1.77;0.87;;;10.80;68.30;;;;;;5007935;28;20627;-48
2023/11/11 04:07:42;;;;;;;0.80;0.80;;;10.70;67.70;;;;;;5007684;28;20190;-46
2023/11/11 04:10:08;;;;;;;1.23;0.97;;;10.60;67.80;;;;;;5007251;28;20468;-54
2023/11/11 04:12:33;;;;;;;1.00;1.00;;;10.60;67.70;;;;;;5008834;28;21001;-49
2023/11/11 04:14:59;;;;;;;0.90;0.90;;;10.80;67.80;;;;;;5008358;28;20797;-50
2023/11/11 04:17:24;;;;;;;1.20;1.10;;;10.80;67.20;;;;;;5004130;28;20193;-50
2023/11/11 04:19:50;;;;;;;1.10;1.10;;;10.80;67.30;;;;;;5004416;28;20551;-48
2023/11/11 04:22:16;;;;;;;2.17;1.10;;;10.90;66.70;;;;;;5004239;28;20186;-50
2023/11/11 04:24:41;;;;;;;1.07;0.97;;;10.90;66.00;;;;;;5005987;28;20700;-48
2023/11/11 04:27:08;;;;;;;1.10;0.97;;;11.00;66.00;;;;;;5001423;28;20262;-52
2023/11/11 04:29:34;;;;;;;1.30;1.17;;;10.90;65.40;;;;;;5006216;28;20209;-56
2023/11/11 04:32:00;;;;;;;2.83;1.97;;;11.10;65.60;;;;;;5002275;28;20444;-48
2023/11/11 04:34:29;;;;;;;3.23;1.13;;;11.20;65.00;;;;;;5005011;28;20214;-48
2023/11/11 04:36:59;;;;;;;1.10;0.87;;;11.10;64.60;;;;;;5006400;28;20661;-47
2023/11/11 04:39:25;;;;;;;1.10;1.00;;;11.20;65.00;;;;;;5007580;28;20480;-48
2023/11/11 04:41:51;;;;;;;2.50;1.00;;;11.30;65.10;;;;;;5003337;28;20461;-52
2023/11/11 04:44:16;;;;;;;7.07;1.03;;;11.40;65.30;;;;;;5006848;28;20436;-50
2023/11/11 04:46:42;;;;;;;1.07;0.97;;;11.20;65.10;;;;;;5006768;28;20440;-53
2023/11/11 04:49:09;;;;;;;1.50;0.93;;;11.10;65.50;;;;;;5007796;28;20252;-49
2023/11/11 04:51:35;;;;;;;1.63;1.13;;;11.10;66.00;;;;;;5006521;28;20182;-49
2023/11/11 04:54:00;;;;;;;0.80;0.80;;;11.20;66.20;;;;;;5004008;28;20473;-50
2023/11/11 04:56:26;;;;;;;1.40;1.30;;;11.10;66.30;;;;;;5005224;28;20197;-53
2023/11/11 04:58:52;;;;;;;1.30;1.20;;;11.10;66.70;;;;;;5006297;28;20246;-49
2023/11/11 05:01:19;;;;;;;0.90;0.90;;;11.20;66.70;;;;;;5005453;28;20209;-49
2023/11/11 05:03:45;;;;;;;1.43;1.33;;;11.20;66.60;;;;;;5004835;28;20436;-51
2023/11/11 05:06:11;;;;;;;1.50;1.40;;;11.00;66.60;;;;;;5008727;28;20437;-50
2023/11/11 05:08:37;;;;;;;2.93;1.30;;;11.00;67.00;;;;;;5003623;28;20468;-50
2023/11/11 05:11:02;;;;;;;1.83;1.50;;;10.90;67.40;;;;;;5006449;28;20613;-50
2023/11/11 05:13:31;;;;;;;1.33;1.23;;;10.90;67.60;;;;;;5005720;28;20761;-47
2023/11/11 05:16:03;;;;;;;1.17;1.10;;;10.90;67.50;;;;;;5002168;28;20178;-52
2023/11/11 05:18:29;;;;;;;1.80;1.10;;;10.70;68.00;;;;;;5002652;28;20511;-50
2023/11/11 05:20:54;;;;;;;1.70;1.50;;;10.60;68.50;;;;;;5007150;28;20453;-50
2023/11/11 05:23:20;;;;;;;2.40;1.17;;;10.80;69.30;;;;;;5006133;28;20739;-47
2023/11/11 05:25:45;;;;;;;1.13;1.03;;;10.80;70.00;;;;;;5005610;28;20206;-50
2023/11/11 05:28:11;;;;;;;2.43;1.23;;;10.70;70.50;;;;;;5003600;28;20192;-51
2023/11/11 05:30:37;;;;;;;1.23;1.13;;;11.00;70.10;;;;;;5003148;28;20244;-54
2023/11/11 05:33:05;;;;;;;1.67;1.10;;;10.80;69.50;;;;;;5008093;28;20285;-46
2023/11/11 05:35:30;;;;;;;1.50;1.40;;;10.80;69.30;;;;;;5007869;28;20228;-48
2023/11/11 05:37:56;;;;;;;2.00;1.50;;;10.80;69.10;;;;;;5003379;28;20472;-53
2023/11/11 05:40:21;;;;;;;2.07;1.50;;;10.70;68.30;;;;;;5000442;28;20707;-52
2023/11/11 05:42:47;;;;;;;1.93;1.30;;;10.80;68.70;;;;;;5004268;28;20198;-51
2023/11/11 05:45:17;;;;;;;1.97;1.60;;;10.70;68.10;;;;;;5000086;28;20704;-48
2023/11/11 05:47:43;;;;;;;2.73;1.97;;;10.80;67.80;;;;;;5005650;28;20220;-51
2023/11/11 05:50:10;;;;;;;1.87;1.50;;;10.90;67.20;;;;;;5004639;28;20534;-51
2023/11/11 05:52:35;;;;;;;1.50;1.40;;;10.90;67.40;;;;;;4998705;28;20499;-53
2023/11/11 05:55:01;;;;;;;1.60;1.33;;;10.90;66.60;;;;;;5004285;28;20979;-53
2023/11/11 05:57:26;;;;;;;1.70;1.60;;;10.90;66.20;;;;;;5004482;28;21031;-47
2023/11/11 05:59:52;;;;;;;2.10;1.30;;;10.90;66.20;;;;;;5000678;28;20231;-48
2023/11/11 06:02:18;;;;;;;2.57;1.87;;;11.20;65.30;;;;;;5001552;28;20202;-50
2023/11/11 06:04:43;;;;;;;3.00;1.90;;;11.40;64.30;;;;;;5004952;28;20441;-48
2023/11/11 06:07:10;;;;;;;3.63;1.57;;;11.30;63.60;;;;;;5001709;28;20305;-50
2023/11/11 06:09:37;;;;;;;4.23;3.47;;;10.90;63.70;;;;;;5003838;28;20558;-53
2023/11/11 06:12:02;;;;;;;3.97;3.60;;;10.90;64.60;;;;;;5003952;28;20252;-46
2023/11/11 06:14:28;;;;;;;3.20;2.00;;;11.00;64.10;;;;;;5003418;28;20473;-54
2023/11/11 06:16:54;;;;;;;1.73;1.63;;;11.10;64.30;;;;;;5006928;28;20186;-51
2023/11/11 06:19:19;;;;;;;2.60;2.40;;;11.20;64.00;;;;;;5009141;28;20260;-52
2023/11/11 06:21:46;;;;;;;2.97;2.67;;;11.10;64.10;;;;;;5003673;28;20193;-51
2023/11/11 06:24:12;;;;;;;2.27;2.07;;;11.20;63.90;;;;;;5005150;28;20550;-53
2023/11/11 06:26:38;;;;;;;1.90;1.43;;;11.60;63.10;;;;;;5009463;28;20448;-52
2023/11/11 06:29:06;;;;;;;3.30;1.60;;;11.50;62.50;;;;;;5008249;28;20476;-49
2023/11/11 06:31:32;;;;;;;1.53;1.40;;;11.60;62.90;;;;;;5003569;28;20460;-51
2023/11/11 06:33:59;;;;;;;2.27;1.53;;;11.60;62.80;;;;;;5007463;28;20468;-48
2023/11/11 06:36:24;;;;;;;2.43;1.70;;;11.60;62.90;;;;;;5006657;28;20432;-51
2023/11/11 06:38:50;;;;;;;2.10;1.90;;;11.60;62.60;;;;;;5008533;28;20475;-49
2023/11/11 06:41:17;;;;;;;1.73;1.63;;;11.50;61.90;;;;;;5004545;28;20193;-51
2023/11/11 06:43:43;;;;;;;1.83;1.60;;;11.40;62.20;;;;;;5006517;28;20213;-53
2023/11/11 06:46:08;;;;;;;2.57;1.80;;;11.40;62.70;;;;;;5008092;28;20432;-52
2023/11/11 06:48:34;;;;;;;2.50;1.90;;;11.40;61.80;;;;;;5007973;28;20268;-50
2023/11/11 06:51:00;;;;;;;5.67;1.50;;;11.30;62.80;;;;;;5009244;28;20217;-52
2023/11/11 06:53:26;;;;;;;1.87;1.77;;;11.40;62.80;;;;;;5010837;28;20221;-48
2023/11/11 06:55:52;;;;;;;1.60;1.43;;;11.50;62.70;;;;;;5010450;28;20444;-51
2023/11/11 06:58:18;;;;;;;1.83;1.63;;;11.60;62.20;;;;;;5009792;28;20190;-49
2023/11/11 07:00:44;;;;;;;2.63;2.00;;;11.60;62.60;;;;;;5008366;28;20727;-50
2023/11/11 07:03:10;;;;;;;2.27;1.60;;;11.80;61.90;;;;;;5005354;28;20433;-52
2023/11/11 07:05:36;;;;;;;2.10;1.47;;;11.90;61.80;;;;;;5010521;28;20419;-52
2023/11/11 07:08:02;;;;;;;1.50;1.40;;;12.10;61.30;;;;;;5008462;28;20514;-47
2023/11/11 07:10:30;;;;;;;2.13;1.63;;;12.30;60.80;;;;;;5008974;28;20182;-47
2023/11/11 07:12:56;;;;;;;1.80;1.70;;;12.40;60.50;;;;;;5010105;28;20555;-48
2023/11/11 07:15:22;;;;;;;2.40;1.60;;;12.10;60.00;;;;;;5009773;28;20453;-48
2023/11/11 07:17:48;;;;;;;2.07;1.87;;;12.10;60.80;;;;;;5009772;28;20429;-52
2023/11/11 07:20:17;;;;;;;3.03;1.60;;;12.10;60.90;;;;;;5008781;28;20476;-47
2023/11/11 07:22:42;;;;;;;3.00;2.23;;;12.30;60.40;;;;;;5011339;28;20218;-49
2023/11/11 07:25:09;;;;;;;1.33;1.23;;;12.30;60.20;;;;;;5007891;28;20468;-50
2023/11/11 07:27:35;;;;;;;1.60;1.20;;;12.30;60.10;;;;;;5009783;28;20924;-51
2023/11/11 07:30:04;;;;;;;6.40;1.37;;;12.00;59.90;;;;;;5008708;28;20551;-50
2023/11/11 07:32:30;;;;;;;1.47;1.37;;;11.90;60.20;;;;;;5004771;28;20452;-47
2023/11/11 07:34:55;;;;;;;4.93;1.10;;;12.00;60.70;;;;;;5003332;28;20479;-47
2023/11/11 07:37:22;;;;;;;2.30;1.60;;;11.80;60.20;;;;;;5011273;28;20194;-47
2023/11/11 07:39:48;;;;;;;2.20;2.10;;;11.70;60.50;;;;;;5007812;28;20222;-53
2023/11/11 07:42:14;;;;;;;4.63;1.40;;;11.80;60.90;;;;;;5008161;28;20441;-48
2023/11/11 07:44:39;;;;;;;3.03;1.43;;;11.90;60.00;;;;;;4992949;28;20272;-49
2023/11/11 07:47:07;;;;;;;1.50;1.40;;;11.90;59.70;;;;;;5007781;28;20190;-47
2023/11/11 07:49:36;;;;;;;1.20;1.10;;;11.90;60.00;;;;;;5008370;28;20605;-50
2023/11/11 07:52:02;;;;;;;2.13;1.20;;;12.00;60.00;;;;;;5007085;28;20491;-51
2023/11/11 07:54:29;;;;;;;1.83;1.23;;;12.10;59.80;;;;;;5006854;28;20472;-50
2023/11/11 07:56:56;;;;;;;2.70;1.50;;;12.20;60.00;;;;;;5008236;28;21019;-55
2023/11/11 07:59:22;;;;;;;1.77;1.43;;;12.10;59.30;;;;;;5008176;28;20985;-49
2023/11/11 08:01:48;;;;;;;1.60;1.50;;;12.10;59.30;;;;;;5009291;28;20425;-49
2023/11/11 08:04:13;;;;;;;1.53;1.37;;;12.30;59.30;;;;;;5009915;28;20431;-49
2023/11/11 08:06:39;;;;;;;1.60;1.50;;;12.20;59.00;;;;;;5008576;28;20182;-48
2023/11/11 08:09:05;;;;;;;1.80;1.20;;;12.20;58.80;;;;;;5008315;28;20272;-52
2023/11/11 08:11:30;;;;;;;3.10;1.30;;;12.20;58.90;;;;;;5009225;28;20248;-50
2023/11/11 08:13:56;;;;;;;1.40;1.30;;;12.30;59.00;;;;;;5009601;28;20361;-48
2023/11/11 08:16:21;;;;;;;1.03;1.03;;;12.30;58.80;;;;;;5008937;28;20174;-46
2023/11/11 08:18:48;;;;;;;1.33;1.23;;;12.30;58.60;;;;;;5009553;28;20202;-47
2023/11/11 08:21:14;;;;;;;2.00;1.20;;;12.30;58.60;;;;;;5008190;28;20178;-50
2023/11/11 08:23:39;;;;;;;1.50;1.30;;;12.30;58.50;;;;;;5008477;28;20530;-48
2023/11/11 08:26:06;;;;;;;1.43;1.30;;;12.20;58.40;;;;;;5008858;28;20248;-51
2023/11/11 08:28:31;;;;;;;1.40;1.20;;;12.00;58.40;;;;;;5008856;28;20201;-51
2023/11/11 08:30:57;;;;;;;1.60;1.33;;;12.00;58.70;;;;;;5008480;28;20478;-52
2023/11/11 08:33:23;;;;;;;1.53;1.30;;;12.10;58.70;;;;;;5008593;28;20628;-50
2023/11/11 08:35:50;;;;;;;1.87;1.20;;;12.30;58.70;;;;;;5007911;28;20717;-51
2023/11/11 08:38:16;;;;;;;1.63;1.30;;;12.30;58.50;;;;;;5008493;28;20178;-49
2023/11/11 08:40:41;;;;;;;2.67;1.83;;;12.50;58.40;;;;;;5008734;28;20413;-52
2023/11/11 08:43:07;;;;;;;1.80;1.37;;;12.60;58.10;;;;;;5008390;28;20640;-53
2023/11/11 08:45:33;;;;;;;1.53;1.40;;;12.50;57.70;;;;;;5009043;28;20224;-47
2023/11/11 08:47:59;;;;;;;2.00;1.37;;;12.60;57.70;;;;;;5008363;28;20186;-52
2023/11/11 08:50:26;;;;;;;4.00;1.50;;;12.50;57.80;;;;;;5000020;28;20193;-52
2023/11/11 08:52:52;;;;;;;2.57;1.90;;;12.50;58.10;;;;;;5009001;28;20444;-48
2023/11/11 08:55:19;;;;;;;4.13;1.37;;;12.60;57.90;;;;;;5007353;28;21212;-52
2023/11/11 08:57:45;;;;;;;1.70;1.43;;;12.50;57.60;;;;;;5006547;28;20189;-50
2023/11/11 09:00:12;;;;;;;2.63;1.47;;;12.40;57.80;;;;;;5006470;28;20514;-49
2023/11/11 09:02:38;;;;;;;3.03;1.40;;;12.50;57.70;;;;;;5006836;28;20213;-54
2023/11/11 09:05:04;;;;;;;5.43;1.70;;;12.60;57.80;;;;;;5005057;28;20445;-50
2023/11/11 09:07:30;;;;;;;2.60;2.10;;;12.60;57.60;;;;;;5006568;28;20960;-51
2023/11/11 09:09:57;;;;;;;1.70;1.60;;;12.50;57.60;;;;;;5001218;28;20471;-53
2023/11/11 09:12:24;;;;;;;2.20;2.00;;;12.50;57.50;;;;;;5003196;28;20452;-49
2023/11/11 09:14:49;;;;;;;3.03;1.73;;;12.20;56.80;;;;;;5000902;28;20492;-49
2023/11/11 09:17:15;;;;;;;3.33;2.20;;;12.00;57.50;;;;;;5000753;28;20457;-52
2023/11/11 09:19:41;;;;;;;3.50;1.90;;;11.80;57.40;;;;;;5006842;28;20217;-51
2023/11/11 09:22:06;;;;;;;4.43;1.80;;;12.00;57.90;;;;;;5004019;28;20248;-47
2023/11/11 09:24:32;;;;;;;3.40;1.60;;;11.90;57.70;;;;;;5007968;28;20190;-52
2023/11/11 09:26:57;;;;;;;1.97;1.70;;;11.60;56.80;;;;;;5005544;28;20279;-52
2023/11/11 09:29:23;;;;;;;2.93;1.80;;;11.50;57.60;;;;;;5007746;28;20233;-51
2023/11/11 09:31:49;;;;;;;2.87;2.20;;;11.70;57.60;;;;;;5007256;28;20197;-52
2023/11/11 09:34:15;;;;;;;3.97;1.80;;;11.60;57.10;;;;;;5006165;28;20573;-52
2023/11/11 09:36:41;;;;;;;2.43;2.17;;;11.50;57.70;;;;;;5007097;28;20190;-47
2023/11/11 09:39:08;;;;;;;2.60;1.87;;;11.50;57.40;;;;;;5007595;28;20967;-50
2023/11/11 09:41:33;;;;;;;2.43;2.17;;;11.50;57.30;;;;;;5004913;28;20305;-51
2023/11/11 09:43:59;;;;;;;4.10;2.07;;;11.50;57.20;;;;;;5006583;28;20567;-47
2023/11/11 09:46:31;;;;;;;4.60;1.60;;;11.30;56.90;;;;;;5005532;28;20193;-52
2023/11/11 09:48:58;;;;;;;2.43;1.70;;;11.20;57.30;;;;;;5006566;28;20726;-55
2023/11/11 09:51:25;;;;;;;2.47;2.10;;;11.30;57.50;;;;;;5009965;28;20860;-53
2023/11/11 09:53:53;;;;;;;3.00;2.50;;;11.70;57.30;;;;;;5014212;28;20476;-52
2023/11/11 09:56:20;;;;;;;3.63;1.43;;;12.10;56.90;;;;;;5011994;28;20543;-57
2023/11/11 09:58:49;;;;;;;1.63;1.40;;;12.40;56.50;;;;;;5012893;28;20457;-54
2023/11/11 10:01:15;;;;;;;4.17;1.53;;;12.60;55.10;;;;;;5010271;28;20956;-50
2023/11/11 10:03:40;;;;;;;1.30;1.20;;;12.90;54.90;;;;;;5009212;28;20536;-51
2023/11/11 10:06:07;;;;;;;1.40;1.30;;;13.40;54.50;;;;;;5011823;28;20863;-55
2023/11/11 10:08:33;;;;;;;2.80;1.40;;;13.80;54.30;;;;;;5010665;28;20201;-51
2023/11/11 10:10:59;;;;;;;1.63;1.53;;;14.30;52.20;;;;;;5011159;28;20951;-51
2023/11/11 10:13:26;;;;;;;2.43;1.50;;;14.60;51.50;;;;;;5012684;28;20502;-54
2023/11/11 10:16:21;;;;;;;1.93;1.20;;;14.80;50.20;;;;;;5010505;28;20528;-50
2023/11/11 10:18:49;;;;;;;1.80;1.70;;;14.90;50.00;;;;;;5010690;28;20479;-50
2023/11/11 10:21:16;;;;;;;3.73;1.37;;;14.70;49.20;;;;;;5010623;28;20482;-55
2023/11/11 10:23:44;;;;;;;1.97;1.37;;;14.40;49.00;;;;;;5007642;28;20856;-48
2023/11/11 10:26:10;;;;;;;1.63;1.40;;;14.00;48.70;;;;;;5009483;28;20452;-52
2023/11/11 10:28:35;;;;;;;1.50;1.30;;;13.90;49.40;;;;;;5011081;28;20538;-51
2023/11/11 10:31:06;;;;;;;1.30;1.20;;;13.70;49.40;;;;;;5007571;28;21036;-49
2023/11/11 10:33:32;;;;;;;2.07;1.50;;;13.60;50.50;;;;;;5007475;28;20209;-51
2023/11/11 10:35:57;;;;;;;1.90;1.47;;;13.50;50.20;;;;;;5003288;28;20490;-50
2023/11/11 10:38:23;;;;;;;2.20;2.07;;;13.50;50.00;;;;;;5006718;28;20482;-49
2023/11/11 10:40:49;;;;;;;2.00;1.40;;;13.70;50.30;;;;;;5008896;28;20217;-53
2023/11/11 10:43:15;;;;;;;1.67;1.40;;;14.00;50.30;;;;;;5006485;28;20689;-49
2023/11/11 10:45:41;;;;;;;1.17;1.03;;;14.10;49.70;;;;;;5008889;28;20202;-52
2023/11/11 10:48:07;;;;;;;1.40;1.30;;;14.20;49.00;;;;;;5006192;28;20562;-55
2023/11/11 10:50:34;;;;;;;1.93;1.53;;;14.40;49.00;;;;;;5011012;28;20432;-54
2023/11/11 10:53:01;;;;;;;1.17;1.07;;;14.20;48.20;;;;;;5008805;28;20485;-53
2023/11/11 10:55:31;;;;;;;2.73;1.33;;;13.70;47.80;;;;;;5010867;28;20464;-49
2023/11/11 10:57:57;;;;;;;1.77;1.20;;;13.50;49.10;;;;;;5008912;28;20459;-54
2023/11/11 11:00:26;;;;;;;5.13;1.40;;;13.30;49.10;;;;;;5008464;28;20457;-52
2023/11/11 11:02:54;;;;;;;1.60;1.50;;;13.20;49.70;;;;;;5004752;28;20797;-49
2023/11/11 11:05:28;;;;;;;1.30;1.00;;;13.40;49.60;;;;;;5007522;28;20449;-53
2023/11/11 11:08:26;;;;;;;2.20;1.33;;;13.40;49.10;;;;;;5004850;28;20459;-50
2023/11/11 11:11:11;;;;;;;1.73;1.63;;;13.20;48.90;;;;;;5006694;28;20829;-52
2023/11/11 11:13:38;;;;;;;3.07;1.30;;;13.30;49.10;;;;;;5008278;28;20492;-56
2023/11/11 11:16:05;;;;;;;4.07;1.27;;;12.90;49.00;;;;;;5007917;28;20458;-48
2023/11/11 11:18:31;;;;;;;1.87;1.40;;;13.00;49.80;;;;;;5007198;28;20534;-54
2023/11/11 11:21:02;;;;;;;1.40;1.30;;;13.30;49.80;;;;;;5009079;28;20453;-55
2023/11/11 11:23:36;;;;;;;3.07;1.30;;;13.20;48.60;;;;;;5010422;28;20186;-52
2023/11/11 11:26:02;;;;;;;1.63;1.30;;;13.00;48.40;;;;;;5009048;28;20436;-55
2023/11/11 11:28:29;;;;;;;5.70;1.60;;;13.10;49.10;;;;;;5009878;28;20437;-50
2023/11/11 11:30:58;;;;;;;1.47;1.37;;;13.20;49.00;;;;;;5006537;28;20448;-50
2023/11/11 11:33:28;;;;;;;0.90;0.90;;;13.40;48.70;;;;;;5007594;28;21300;-53
2023/11/11 11:36:01;;;;;;;2.90;1.63;;;13.50;48.70;;;;;;5008059;28;20548;-53
2023/11/11 11:38:31;;;;;;;2.60;1.60;;;13.50;48.60;;;;;;5009837;28;20456;-48
2023/11/11 11:41:05;;;;;;;1.67;1.23;;;13.70;47.80;;;;;;5006174;28;20429;-54
2023/11/11 11:43:31;;;;;;;4.87;1.30;;;13.70;47.50;;;;;;5009443;28;20448;-50
2023/11/11 11:45:58;;;;;;;2.43;1.60;;;13.80;47.30;;;;;;5008840;28;21341;-50
2023/11/11 11:48:35;;;;;;;1.90;1.57;;;13.70;46.30;;;;;;5010197;28;20456;-55
2023/11/11 11:51:12;;;;;;;1.37;1.27;;;13.70;46.70;;;;;;5007437;28;20444;-52
2023/11/11 11:53:41;;;;;;;2.53;1.30;;;13.80;46.80;;;;;;5008663;28;21007;-56
2023/11/11 11:56:07;;;;;;;3.50;1.63;;;13.90;46.70;;;;;;5008683;28;20468;-52
2023/11/11 11:58:45;;;;;;;5.03;1.30;;;13.80;46.90;;;;;;5007386;28;20465;-50
2023/11/11 12:01:19;;;;;;;2.13;1.73;;;13.70;46.90;;;;;;5008391;28;20433;-52
2023/11/11 12:03:45;;;;;;;1.40;1.30;;;13.40;47.00;;;;;;5008739;28;20502;-55
2023/11/11 12:06:11;;;;;;;1.37;1.27;;;13.40;48.00;;;;;;5008296;28;20448;-53
2023/11/11 12:08:36;;;;;;;1.33;1.23;;;13.30;47.60;;;;;;5009476;28;20226;-52
2023/11/11 12:11:02;;;;;;;1.63;1.33;;;13.60;48.50;;;;;;5006455;28;20479;-52
2023/11/11 12:13:37;;;;;;;2.70;1.67;;;13.80;48.20;;;;;;5008998;28;20221;-52
2023/11/11 12:16:02;;;;;;;1.23;1.13;;;14.10;48.20;;;;;;5007360;28;20284;-52
2023/11/11 12:18:28;;;;;;;2.50;1.60;;;14.10;47.10;;;;;;5008281;28;20527;-54
2023/11/11 12:20:54;;;;;;;2.83;1.30;;;13.90;46.80;;;;;;5007520;28;20186;-51
2023/11/11 12:23:20;;;;;;;1.13;1.03;;;13.90;47.50;;;;;;5007601;28;20448;-56
2023/11/11 12:25:45;;;;;;;3.97;1.67;;;14.00;47.60;;;;;;5007847;28;20276;-51
2023/11/11 12:28:11;;;;;;;1.80;1.70;;;14.10;47.40;;;;;;5007623;28;20665;-52
2023/11/11 12:30:36;;;;;;;2.60;1.70;;;14.20;46.90;;;;;;5007956;28;20189;-55
2023/11/11 12:33:09;;;;;;;1.47;1.20;;;14.30;46.70;;;;;;5004939;28;20645;-52
2023/11/11 12:35:42;;;;;;;1.50;1.40;;;14.20;47.70;;;;;;5008060;28;20190;-52
2023/11/11 12:38:28;;;;;;;3.43;1.97;;;13.70;50.90;;;;;;5003927;28;20435;-54
2023/11/11 12:40:56;;;;;;;2.23;2.03;;;13.40;53.80;;;;;;5004708;28;20432;-53
2023/11/11 12:43:22;;;;;;;2.10;1.90;;;13.30;55.60;;;;;;5001846;28;20457;-48
2023/11/11 12:45:48;;;;;;;3.07;1.80;;;13.10;56.60;;;;;;5004241;28;20449;-55